Time;durP1;ratioP1;P1;durP2;ratioP2;P2;SDS_P1;SDS_P2;PMS_P1;PMS_P2;Temp;Humidity;BMP_temperature;BMP_pressure;BME280_temperature;BME280_humidity;BME280_pressure;Samples;Min_cycle;Max_cycle;Signal;HPM_P1;HPM_P2
2021/12/10 00:00:38;;;;;;;2.25;1.08;;;21.90;30.90;;;;;;5040149;28;20065;-48
2021/12/10 00:03:07;;;;;;;2.70;1.42;;;21.90;31.00;;;;;;5038315;28;20025;-48
2021/12/10 00:05:39;;;;;;;1.90;0.90;;;21.80;30.90;;;;;;5036248;28;20028;-46
2021/12/10 00:08:06;;;;;;;1.95;1.20;;;21.90;30.90;;;;;;5040724;28;20043;-50
2021/12/10 00:10:37;;;;;;;2.40;1.40;;;21.80;30.90;;;;;;5050328;28;20094;-48
2021/12/10 00:13:05;;;;;;;2.95;1.10;;;21.80;30.90;;;;;;5047195;28;20056;-46
2021/12/10 00:15:32;;;;;;;2.45;1.17;;;21.80;30.90;;;;;;5038037;28;20040;-46
2021/12/10 00:18:00;;;;;;;1.92;0.93;;;21.80;30.80;;;;;;5048874;28;20345;-46
2021/12/10 00:20:29;;;;;;;1.83;1.13;;;21.80;30.80;;;;;;5035970;28;20132;-45
2021/12/10 00:23:00;;;;;;;3.03;1.13;;;21.80;30.90;;;;;;5040736;28;20083;-49
2021/12/10 00:25:38;;;;;;;1.95;0.88;;;21.80;30.90;;;;;;5036072;28;20029;-47
2021/12/10 00:28:27;;;;;;;2.72;1.00;;;21.80;30.90;;;;;;5039374;28;20013;-50
2021/12/10 00:31:31;;;;;;;2.22;1.13;;;21.80;30.90;;;;;;5036226;28;20025;-46
2021/12/10 00:33:54;;;;;;;1.85;1.00;;;21.80;30.90;;;;;;5052123;28;20112;-47
2021/12/10 00:36:21;;;;;;;2.53;1.20;;;21.80;30.90;;;;;;5041265;28;20037;-45
2021/12/10 00:38:47;;;;;;;2.58;1.00;;;21.70;30.80;;;;;;5052949;28;20035;-48
2021/12/10 00:41:14;;;;;;;2.83;1.25;;;21.70;30.80;;;;;;5053788;28;20079;-46
2021/12/10 00:43:40;;;;;;;1.95;1.10;;;21.70;30.80;;;;;;5046295;28;20032;-47
2021/12/10 00:46:06;;;;;;;2.15;1.20;;;21.70;30.80;;;;;;5045727;28;20027;-42
2021/12/10 00:48:33;;;;;;;2.90;1.50;;;21.70;30.70;;;;;;5050676;28;20116;-50
2021/12/10 00:51:00;;;;;;;2.22;1.23;;;21.70;30.70;;;;;;5035557;28;20310;-48
2021/12/10 00:53:26;;;;;;;1.70;1.05;;;21.70;30.70;;;;;;5050803;28;20127;-48
2021/12/10 00:55:52;;;;;;;2.20;0.98;;;21.70;30.70;;;;;;5054327;28;20386;-46
2021/12/10 00:58:19;;;;;;;1.73;1.05;;;21.70;30.70;;;;;;5052613;28;20306;-48
2021/12/10 01:00:54;;;;;;;2.83;1.42;;;21.70;30.70;;;;;;5054938;28;20351;-47
2021/12/10 01:03:25;;;;;;;1.98;1.13;;;21.70;30.70;;;;;;5055202;28;20452;-47
2021/12/10 01:05:54;;;;;;;1.88;1.30;;;21.70;30.70;;;;;;5046960;28;20036;-49
2021/12/10 01:08:21;;;;;;;1.98;1.10;;;21.70;30.70;;;;;;5049056;28;20029;-48
2021/12/10 01:11:10;;;;;;;1.10;0.85;;;21.60;30.70;;;;;;5046387;28;20029;-45
2021/12/10 01:13:39;;;;;;;2.13;0.90;;;21.70;30.70;;;;;;5057805;28;20029;-45
2021/12/10 01:24:48;;;;;;;2.33;1.20;;;21.60;30.70;;;;;;5035206;28;20033;-46
2021/12/10 01:27:27;;;;;;;2.03;1.20;;;21.60;30.70;;;;;;5042128;28;20057;-47
2021/12/10 01:29:57;;;;;;;2.80;1.10;;;21.60;30.80;;;;;;5054884;28;20028;-48
2021/12/10 01:32:29;;;;;;;2.58;1.20;;;21.60;30.70;;;;;;5043789;28;20039;-44
2021/12/10 01:34:55;;;;;;;2.00;0.90;;;21.50;30.70;;;;;;5054984;28;20432;-50
2021/12/10 01:37:25;;;;;;;2.47;1.15;;;21.60;30.80;;;;;;5042844;28;20048;-47
2021/12/10 01:39:56;;;;;;;1.98;0.80;;;21.60;30.80;;;;;;5046803;28;20033;-46
2021/12/10 01:44:57;;;;;;;1.98;0.90;;;21.50;30.70;;;;;;5055073;28;20051;-50
2021/12/10 01:47:30;;;;;;;2.30;1.15;;;21.50;30.70;;;;;;5054557;28;20052;-47
2021/12/10 01:49:56;;;;;;;1.95;1.10;;;21.50;30.70;;;;;;5045004;28;20149;-47
2021/12/10 01:52:22;;;;;;;1.33;0.90;;;21.50;30.60;;;;;;5054784;28;20040;-45
2021/12/10 01:54:52;;;;;;;1.40;0.88;;;21.50;30.60;;;;;;5035660;28;20130;-43
2021/12/10 01:57:20;;;;;;;1.95;1.25;;;21.50;30.60;;;;;;5044194;28;20032;-45
2021/12/10 01:59:48;;;;;;;1.80;0.90;;;21.50;30.60;;;;;;5047915;28;20037;-43
2021/12/10 02:02:25;;;;;;;2.05;1.10;;;21.50;30.60;;;;;;5062613;28;20093;-46
2021/12/10 02:04:54;;;;;;;1.63;1.10;;;21.50;30.60;;;;;;5045641;28;20029;-45
2021/12/10 02:07:23;;;;;;;2.85;1.23;;;21.50;30.60;;;;;;5054674;28;20029;-45
2021/12/10 02:09:49;;;;;;;1.67;1.10;;;21.50;30.60;;;;;;5043729;28;20331;-47
2021/12/10 02:12:18;;;;;;;1.63;1.05;;;21.50;30.60;;;;;;5054927;28;20040;-46
2021/12/10 02:14:46;;;;;;;1.33;1.00;;;21.50;30.60;;;;;;5053667;28;20040;-48
2021/12/10 02:17:12;;;;;;;2.50;1.10;;;21.40;30.50;;;;;;5054445;28;20108;-46
2021/12/10 02:19:39;;;;;;;3.00;1.20;;;21.40;30.50;;;;;;5043896;28;20067;-48
2021/12/10 02:22:06;;;;;;;2.28;1.00;;;21.40;30.50;;;;;;5064339;28;20037;-45
2021/12/10 02:24:32;;;;;;;1.88;1.10;;;21.40;30.50;;;;;;5052946;28;20033;-46
2021/12/10 02:27:06;;;;;;;1.63;1.05;;;21.40;30.50;;;;;;5058654;28;20082;-45
2021/12/10 02:29:34;;;;;;;1.77;0.90;;;21.40;30.50;;;;;;5053770;28;20140;-45
2021/12/10 02:32:01;;;;;;;1.30;0.85;;;21.40;31.10;;;;;;5041024;28;20317;-54
2021/12/10 02:34:28;;;;;;;1.65;0.90;;;21.40;30.50;;;;;;5057518;28;20036;-52
2021/12/10 02:36:55;;;;;;;1.90;0.95;;;21.40;30.50;;;;;;5058193;28;20348;-55
2021/12/10 02:39:24;;;;;;;1.60;0.85;;;21.40;30.40;;;;;;5053289;28;20159;-51
2021/12/10 02:41:50;;;;;;;1.75;0.90;;;21.40;30.40;;;;;;5062610;28;20040;-49
2021/12/10 02:44:23;;;;;;;2.10;1.10;;;21.40;30.40;;;;;;5051493;28;20036;-51
2021/12/10 02:46:50;;;;;;;1.65;0.98;;;21.40;30.40;;;;;;5057888;28;20024;-50
2021/12/10 02:49:17;;;;;;;2.92;1.48;;;21.40;30.40;;;;;;5045225;28;20152;-48
2021/12/10 02:51:44;;;;;;;2.20;1.00;;;21.30;30.30;;;;;;5049092;28;20048;-49
2021/12/10 02:54:12;;;;;;;2.35;1.00;;;21.40;30.40;;;;;;5049690;28;20344;-49
2021/12/10 02:56:39;;;;;;;1.67;0.90;;;21.30;30.30;;;;;;5058081;28;20341;-47
2021/12/10 02:59:05;;;;;;;1.80;0.93;;;21.30;30.30;;;;;;5053135;28;20037;-46
2021/12/10 03:01:44;;;;;;;2.58;0.90;;;21.30;30.30;;;;;;5052384;28;20116;-45
2021/12/10 03:04:11;;;;;;;2.58;1.00;;;21.40;30.30;;;;;;5065321;28;20028;-51
2021/12/10 03:06:58;;;;;;;2.17;1.00;;;21.30;30.30;;;;;;5057896;28;20020;-45
2021/12/10 03:09:26;;;;;;;1.15;0.75;;;21.30;30.30;;;;;;5055279;28;20043;-50
2021/12/10 03:11:56;;;;;;;1.70;1.10;;;21.30;30.30;;;;;;5057718;28;20021;-52
2021/12/10 03:14:25;;;;;;;1.75;0.90;;;21.30;30.30;;;;;;5048639;28;20429;-44
2021/12/10 03:16:54;;;;;;;1.20;0.70;;;21.30;30.30;;;;;;5057242;28;20103;-46
2021/12/10 03:19:21;;;;;;;1.98;0.90;;;21.30;30.30;;;;;;5055000;28;20029;-45
2021/12/10 03:21:49;;;;;;;2.22;1.10;;;21.30;30.30;;;;;;5065191;28;20044;-47
2021/12/10 03:24:19;;;;;;;1.88;1.00;;;21.20;30.30;;;;;;5062407;28;20029;-45
2021/12/10 03:26:45;;;;;;;1.63;0.95;;;21.30;30.30;;;;;;5056845;28;20406;-52
2021/12/10 03:29:11;;;;;;;1.90;1.00;;;21.30;30.30;;;;;;5050053;28;20032;-44
2021/12/10 03:31:37;;;;;;;1.55;0.80;;;21.20;30.40;;;;;;5056501;28;20025;-48
2021/12/10 03:34:05;;;;;;;1.33;0.80;;;21.30;30.30;;;;;;5044728;28;20037;-49
2021/12/10 03:36:31;;;;;;;1.50;0.80;;;21.20;30.20;;;;;;5039164;28;20041;-46
2021/12/10 03:38:57;;;;;;;1.23;0.68;;;21.20;30.20;;;;;;5051830;28;20020;-49
2021/12/10 03:41:23;;;;;;;1.30;0.70;;;21.20;30.20;;;;;;5056812;28;20059;-46
2021/12/10 03:43:51;;;;;;;1.42;0.70;;;21.20;30.20;;;;;;5055207;28;20448;-45
2021/12/10 03:46:18;;;;;;;1.45;0.73;;;21.20;30.20;;;;;;5056847;28;20032;-49
2021/12/10 03:48:45;;;;;;;1.27;0.80;;;21.20;30.30;;;;;;5038240;28;20337;-46
2021/12/10 03:51:15;;;;;;;1.38;0.90;;;21.20;30.30;;;;;;5043869;28;20017;-46
2021/12/10 03:53:41;;;;;;;1.20;0.80;;;21.20;30.30;;;;;;5053848;28;20111;-45
2021/12/10 03:56:12;;;;;;;1.63;0.70;;;21.20;30.30;;;;;;5056527;28;20104;-45
2021/12/10 03:58:39;;;;;;;1.08;0.60;;;21.20;30.30;;;;;;5049273;28;20037;-49
2021/12/10 04:01:07;;;;;;;2.20;1.10;;;21.20;30.30;;;;;;5041698;28;20028;-45
2021/12/10 04:03:34;;;;;;;2.15;0.90;;;21.20;30.30;;;;;;5056533;28;20041;-47
2021/12/10 04:06:00;;;;;;;0.80;0.45;;;21.20;30.30;;;;;;5052574;28;20029;-46
2021/12/10 04:08:27;;;;;;;0.95;0.70;;;21.20;30.30;;;;;;5055674;28;20025;-48
2021/12/10 04:10:55;;;;;;;1.40;0.80;;;21.20;30.30;;;;;;5056459;28;20025;-47
2021/12/10 04:13:22;;;;;;;1.30;0.85;;;21.20;30.30;;;;;;5050116;28;20399;-47
2021/12/10 04:15:48;;;;;;;0.70;0.60;;;21.20;30.20;;;;;;5050225;28;20021;-43
2021/12/10 04:18:15;;;;;;;1.10;0.70;;;21.10;30.20;;;;;;5037890;28;20417;-48
2021/12/10 04:20:42;;;;;;;1.13;0.73;;;21.10;30.20;;;;;;5056094;28;20061;-46
2021/12/10 04:23:12;;;;;;;1.45;0.63;;;21.10;30.20;;;;;;5052008;28;20063;-45
2021/12/10 04:25:39;;;;;;;0.90;0.60;;;21.10;30.20;;;;;;5048793;28;20052;-46
2021/12/10 04:28:07;;;;;;;0.82;0.60;;;21.10;30.20;;;;;;5053621;28;20036;-45
2021/12/10 04:30:35;;;;;;;1.08;0.68;;;21.10;30.20;;;;;;5047628;28;20040;-48
2021/12/10 04:33:07;;;;;;;1.33;0.68;;;21.10;30.20;;;;;;5066128;28;20163;-46
2021/12/10 04:35:33;;;;;;;1.42;0.60;;;21.10;30.20;;;;;;5055502;28;20028;-49
2021/12/10 04:37:59;;;;;;;1.17;0.60;;;21.10;30.20;;;;;;5054964;28;20060;-46
2021/12/10 04:40:25;;;;;;;2.28;1.13;;;21.10;30.20;;;;;;5054814;28;20444;-45
2021/12/10 04:42:51;;;;;;;1.15;0.60;;;21.10;30.20;;;;;;5054264;28;20063;-47
2021/12/10 04:45:19;;;;;;;0.88;0.60;;;21.10;30.10;;;;;;5055206;28;20029;-44
2021/12/10 04:47:46;;;;;;;1.23;0.80;;;21.10;30.10;;;;;;5036940;28;20118;-53
2021/12/10 04:50:15;;;;;;;0.90;0.40;;;21.10;30.10;;;;;;5050040;28;20033;-54
2021/12/10 04:52:41;;;;;;;0.93;0.80;;;21.10;30.10;;;;;;5054313;28;20121;-50
2021/12/10 04:55:10;;;;;;;0.80;0.60;;;21.00;30.00;;;;;;5053237;28;20475;-50
2021/12/10 04:57:36;;;;;;;0.93;0.50;;;21.10;30.10;;;;;;5035381;28;20424;-50
2021/12/10 05:00:06;;;;;;;1.67;0.70;;;21.00;30.00;;;;;;5036108;28;20045;-52
2021/12/10 05:02:33;;;;;;;1.38;0.68;;;21.00;30.00;;;;;;5055457;28;20052;-50
2021/12/10 05:05:00;;;;;;;0.80;0.68;;;21.00;30.00;;;;;;5036165;28;20343;-44
2021/12/10 05:07:30;;;;;;;1.45;0.75;;;21.00;30.60;;;;;;5035426;28;20033;-49
2021/12/10 05:09:57;;;;;;;1.27;0.70;;;21.00;30.00;;;;;;5036678;28;20040;-50
2021/12/10 05:12:23;;;;;;;1.00;0.70;;;21.00;30.00;;;;;;5054873;28;20031;-47
2021/12/10 05:14:49;;;;;;;0.90;0.50;;;21.00;30.00;;;;;;5041497;28;20067;-46
2021/12/10 05:17:15;;;;;;;1.17;0.60;;;21.00;30.00;;;;;;5055142;28;20021;-46
2021/12/10 05:19:42;;;;;;;0.70;0.50;;;21.00;30.00;;;;;;5041829;28;20033;-47
2021/12/10 05:22:10;;;;;;;1.17;0.80;;;21.00;30.00;;;;;;5055186;28;20043;-44
2021/12/10 05:24:37;;;;;;;0.65;0.55;;;21.00;30.00;;;;;;5053871;28;20031;-47
2021/12/10 05:27:04;;;;;;;1.00;0.60;;;21.00;30.00;;;;;;5054568;28;20104;-49
2021/12/10 05:29:30;;;;;;;1.20;0.50;;;21.00;30.00;;;;;;5054165;28;20018;-46
2021/12/10 05:31:58;;;;;;;1.33;0.80;;;21.00;30.00;;;;;;5054954;28;20025;-48
2021/12/10 05:34:25;;;;;;;0.80;0.63;;;21.00;30.00;;;;;;5041127;28;20079;-50
2021/12/10 05:36:51;;;;;;;1.45;0.70;;;21.00;30.00;;;;;;5055304;28;20029;-49
2021/12/10 05:39:21;;;;;;;2.15;0.75;;;21.00;30.00;;;;;;5053821;28;20021;-45
2021/12/10 05:41:47;;;;;;;1.40;0.70;;;21.00;30.00;;;;;;5054754;28;20036;-48
2021/12/10 05:44:13;;;;;;;1.10;0.60;;;21.00;30.00;;;;;;5028302;28;20032;-45
2021/12/10 05:46:39;;;;;;;1.38;0.70;;;20.90;30.00;;;;;;5062610;28;20082;-50
2021/12/10 05:49:06;;;;;;;1.10;0.68;;;20.90;29.90;;;;;;5059557;28;20100;-49
2021/12/10 05:51:33;;;;;;;1.40;0.70;;;20.90;30.00;;;;;;5054766;28;20032;-47
2021/12/10 05:53:59;;;;;;;1.50;0.80;;;20.90;29.90;;;;;;5046869;28;20086;-45
2021/12/10 05:56:25;;;;;;;1.65;0.70;;;21.00;30.00;;;;;;5054644;28;20025;-49
2021/12/10 05:58:51;;;;;;;1.27;0.90;;;20.90;29.90;;;;;;5052731;28;20444;-45
2021/12/10 06:01:19;;;;;;;1.58;0.88;;;20.90;30.00;;;;;;5054829;28;20032;-48
2021/12/10 06:03:52;;;;;;;2.03;0.90;;;20.90;30.00;;;;;;5046410;28;20459;-46
2021/12/10 06:06:20;;;;;;;1.75;0.80;;;20.90;30.00;;;;;;5054110;28;20021;-44
2021/12/10 06:08:46;;;;;;;1.20;0.65;;;20.90;30.00;;;;;;5049837;28;20456;-46
2021/12/10 06:11:11;;;;;;;1.45;0.77;;;20.90;30.00;;;;;;5054237;28;20100;-46
2021/12/10 06:13:37;;;;;;;0.90;0.60;;;20.90;30.00;;;;;;5044328;28;20402;-48
2021/12/10 06:16:04;;;;;;;1.25;0.80;;;20.90;30.00;;;;;;5059427;28;20056;-47
2021/12/10 06:18:29;;;;;;;2.28;1.10;;;20.90;30.00;;;;;;5060129;28;20021;-49
2021/12/10 06:20:56;;;;;;;1.35;0.70;;;20.90;30.00;;;;;;5054071;28;20085;-50
2021/12/10 06:23:22;;;;;;;2.20;1.02;;;20.90;30.00;;;;;;5041963;28;20413;-46
2021/12/10 06:25:49;;;;;;;1.65;0.77;;;20.90;30.00;;;;;;5046120;28;20025;-48
2021/12/10 06:28:16;;;;;;;0.90;0.60;;;20.90;30.00;;;;;;5053867;28;20063;-50
2021/12/10 06:30:44;;;;;;;1.20;0.60;;;20.80;29.90;;;;;;5054118;28;20029;-46
2021/12/10 06:33:15;;;;;;;1.52;0.85;;;20.90;30.00;;;;;;5053755;28;20021;-48
2021/12/10 06:35:42;;;;;;;2.08;0.85;;;20.90;30.00;;;;;;5047882;28;20033;-47
2021/12/10 06:38:10;;;;;;;1.38;0.80;;;20.80;29.90;;;;;;5034647;28;20452;-48
2021/12/10 06:40:39;;;;;;;1.80;0.77;;;20.80;29.90;;;;;;5037395;28;20092;-43
2021/12/10 06:43:06;;;;;;;1.88;0.77;;;20.80;29.90;;;;;;5040447;28;20036;-51
2021/12/10 06:45:33;;;;;;;3.25;1.00;;;20.80;29.90;;;;;;5050363;28;20022;-48
2021/12/10 06:48:01;;;;;;;2.13;0.70;;;20.80;29.90;;;;;;5034001;28;20022;-49
2021/12/10 06:50:30;;;;;;;1.05;0.70;;;20.80;29.90;;;;;;5037839;28;20313;-46
2021/12/10 06:52:57;;;;;;;2.00;0.63;;;20.80;29.90;;;;;;5035352;28;20037;-46
2021/12/10 06:55:23;;;;;;;1.35;0.90;;;20.80;29.90;;;;;;5041646;28;20091;-47
2021/12/10 06:57:49;;;;;;;1.33;0.60;;;20.80;29.90;;;;;;5033852;28;20045;-50
2021/12/10 07:00:26;;;;;;;1.17;0.60;;;20.80;29.90;;;;;;5051833;28;20024;-52
2021/12/10 07:02:52;;;;;;;1.60;0.80;;;20.80;29.90;;;;;;5043486;28;20033;-45
2021/12/10 07:05:18;;;;;;;1.30;0.70;;;20.80;29.90;;;;;;5050584;28;20032;-47
2021/12/10 07:07:44;;;;;;;1.42;0.70;;;20.80;29.90;;;;;;5033680;28;20094;-48
2021/12/10 07:10:11;;;;;;;1.38;0.70;;;20.80;29.90;;;;;;5031304;28;20025;-44
2021/12/10 07:12:39;;;;;;;1.50;0.80;;;20.70;29.90;;;;;;5057246;28;20040;-45
2021/12/10 07:15:09;;;;;;;2.15;0.80;;;20.80;29.90;;;;;;5050283;28;20024;-47
2021/12/10 07:17:42;;;;;;;1.45;0.90;;;20.80;29.90;;;;;;5059567;28;20021;-45
2021/12/10 07:20:10;;;;;;;2.00;0.80;;;20.80;29.90;;;;;;5057214;28;20035;-47
2021/12/10 07:22:36;;;;;;;1.80;0.73;;;20.70;29.90;;;;;;5045206;28;20348;-47
2021/12/10 07:25:04;;;;;;;1.55;0.77;;;20.80;29.90;;;;;;5048718;28;20522;-49
2021/12/10 07:27:31;;;;;;;1.50;0.80;;;20.80;29.90;;;;;;5054838;28;20051;-46
2021/12/10 07:29:56;;;;;;;2.20;0.90;;;20.80;29.90;;;;;;5050346;28;20029;-48
2021/12/10 07:32:22;;;;;;;1.77;0.80;;;20.70;29.90;;;;;;5055919;28;20031;-48
2021/12/10 07:34:48;;;;;;;1.05;0.50;;;20.70;29.90;;;;;;5054695;28;20402;-51
2021/12/10 07:37:14;;;;;;;2.63;0.77;;;20.70;30.00;;;;;;5057526;28;20098;-46
2021/12/10 07:39:40;;;;;;;1.77;0.60;;;20.70;30.00;;;;;;5049274;28;20029;-44
2021/12/10 07:42:07;;;;;;;2.30;0.73;;;20.70;30.00;;;;;;5037609;28;20332;-46
2021/12/10 07:44:38;;;;;;;0.85;0.65;;;20.80;30.10;;;;;;5047463;28;20049;-52
2021/12/10 07:47:13;;;;;;;1.75;0.73;;;20.90;30.10;;;;;;5044798;28;20382;-45
2021/12/10 07:49:42;;;;;;;1.23;0.90;;;20.90;30.10;;;;;;5050123;28;20025;-46
2021/12/10 07:52:16;;;;;;;1.83;0.70;;;21.00;30.00;;;;;;5048085;28;20026;-47
2021/12/10 07:54:46;;;;;;;1.15;0.80;;;21.20;30.00;;;;;;5055523;28;20108;-48
2021/12/10 07:57:12;;;;;;;1.48;0.70;;;21.20;30.00;;;;;;5056485;28;20032;-47
2021/12/10 07:59:39;;;;;;;1.45;0.60;;;21.30;30.00;;;;;;5048082;28;20052;-48
2021/12/10 08:02:05;;;;;;;1.38;0.77;;;21.40;29.90;;;;;;5046101;28;20408;-47
2021/12/10 08:04:31;;;;;;;1.27;0.55;;;21.50;29.90;;;;;;5024432;28;20333;-48
2021/12/10 08:06:57;;;;;;;1.23;0.70;;;21.60;29.80;;;;;;5042477;28;20040;-49
2021/12/10 08:09:22;;;;;;;1.30;0.88;;;21.70;29.80;;;;;;5047238;28;20035;-52
2021/12/10 08:11:49;;;;;;;1.45;0.63;;;21.80;29.80;;;;;;5056305;28;20104;-44
2021/12/10 08:14:15;;;;;;;1.23;0.55;;;21.90;29.70;;;;;;5056371;28;20328;-50
2021/12/10 08:16:40;;;;;;;1.48;0.65;;;22.00;29.70;;;;;;5055419;28;20025;-49
2021/12/10 08:19:07;;;;;;;1.38;0.70;;;22.10;29.60;;;;;;5056171;28;20482;-48
2021/12/10 08:21:36;;;;;;;1.15;0.68;;;22.10;29.50;;;;;;5056168;28;20459;-47
2021/12/10 08:24:02;;;;;;;1.40;0.70;;;22.20;29.40;;;;;;5049140;28;20030;-49
2021/12/10 08:26:29;;;;;;;1.50;0.65;;;22.20;29.40;;;;;;5053710;28;20343;-45
2021/12/10 08:28:55;;;;;;;1.70;0.82;;;22.30;29.30;;;;;;5041260;28;20337;-49
2021/12/10 08:31:21;;;;;;;3.63;0.73;;;22.40;29.30;;;;;;5041492;28;20029;-50
2021/12/10 08:33:48;;;;;;;1.80;0.60;;;22.50;29.20;;;;;;5036897;28;20093;-47
2021/12/10 08:36:17;;;;;;;2.15;0.90;;;22.60;29.20;;;;;;5039045;28;20444;-46
2021/12/10 08:38:44;;;;;;;1.98;0.60;;;22.60;29.10;;;;;;5018411;28;20061;-52
2021/12/10 08:41:15;;;;;;;1.95;0.80;;;22.70;29.10;;;;;;5040983;28;20037;-48
2021/12/10 08:43:42;;;;;;;1.33;0.77;;;22.80;29.00;;;;;;5044779;28;20484;-48
2021/12/10 08:46:09;;;;;;;2.65;0.90;;;22.80;28.90;;;;;;5042290;28;20396;-49
2021/12/10 08:48:36;;;;;;;1.60;0.93;;;22.90;28.90;;;;;;5050578;28;20025;-52
2021/12/10 08:51:10;;;;;;;1.83;0.88;;;23.00;28.80;;;;;;5038189;28;20021;-51
2021/12/10 08:53:36;;;;;;;3.65;1.15;;;23.00;28.80;;;;;;5049373;28;20017;-50
2021/12/10 08:56:03;;;;;;;2.50;0.90;;;23.10;28.80;;;;;;5044030;28;20510;-48
2021/12/10 08:58:29;;;;;;;2.17;0.88;;;23.10;28.70;;;;;;5041960;28;20037;-51
2021/12/10 09:01:00;;;;;;;1.60;0.70;;;23.10;28.60;;;;;;5045109;28;20047;-50
2021/12/10 09:03:26;;;;;;;1.00;0.75;;;23.20;28.60;;;;;;5034946;28;20036;-46
2021/12/10 09:05:53;;;;;;;1.35;0.75;;;23.20;28.50;;;;;;5038725;28;20021;-45
2021/12/10 09:08:19;;;;;;;2.72;0.80;;;23.30;28.50;;;;;;5055249;28;20032;-50
2021/12/10 09:10:46;;;;;;;0.95;0.60;;;23.30;28.50;;;;;;5055331;28;20021;-46
2021/12/10 09:13:14;;;;;;;1.98;1.00;;;23.40;28.50;;;;;;5055447;28;20436;-48
2021/12/10 09:15:43;;;;;;;1.50;0.80;;;23.40;28.40;;;;;;5054662;28;20079;-47
2021/12/10 09:18:09;;;;;;;1.95;0.90;;;23.50;28.40;;;;;;5055195;28;20029;-47
2021/12/10 09:20:39;;;;;;;0.95;0.60;;;23.40;28.30;;;;;;5055019;28;20091;-44
2021/12/10 09:23:10;;;;;;;1.27;0.68;;;23.50;28.30;;;;;;5055090;28;20032;-48
2021/12/10 09:25:38;;;;;;;1.83;0.90;;;23.50;28.20;;;;;;5055082;28;20033;-47
2021/12/10 09:28:04;;;;;;;1.80;0.80;;;23.50;28.20;;;;;;5054079;28;20438;-47
2021/12/10 09:30:32;;;;;;;1.20;0.63;;;23.60;28.20;;;;;;5054660;28;20040;-48
2021/12/10 09:32:58;;;;;;;2.42;0.95;;;23.60;28.10;;;;;;5053833;28;20016;-50
2021/12/10 09:35:27;;;;;;;1.73;0.80;;;23.60;28.10;;;;;;5054817;28;20047;-47
2021/12/10 09:37:54;;;;;;;1.98;0.80;;;23.60;28.00;;;;;;5054969;28;20017;-47
2021/12/10 09:40:24;;;;;;;1.98;0.88;;;23.60;28.00;;;;;;5054796;28;20115;-52
2021/12/10 09:42:49;;;;;;;1.23;0.80;;;23.60;28.00;;;;;;5054887;28;20343;-48
2021/12/10 09:45:19;;;;;;;1.10;0.50;;;23.60;28.00;;;;;;5054280;28;20021;-48
2021/12/10 09:47:46;;;;;;;1.02;0.60;;;23.60;28.00;;;;;;5054426;28;20033;-47
2021/12/10 09:50:14;;;;;;;0.85;0.50;;;23.60;28.00;;;;;;5053710;28;20036;-45
2021/12/10 09:52:41;;;;;;;1.30;0.57;;;23.60;28.00;;;;;;5037452;28;20432;-44
2021/12/10 09:55:10;;;;;;;1.23;0.60;;;23.60;28.00;;;;;;5055483;28;20024;-47
2021/12/10 09:57:38;;;;;;;1.23;0.50;;;23.50;28.00;;;;;;5066007;28;20036;-47
2021/12/10 10:00:11;;;;;;;1.35;0.68;;;23.50;28.00;;;;;;5064076;28;20025;-47
2021/12/10 10:02:41;;;;;;;1.77;0.90;;;23.50;28.00;;;;;;5054186;28;20448;-44
2021/12/10 10:05:08;;;;;;;1.55;0.80;;;23.50;28.00;;;;;;5054191;28;20408;-49
2021/12/10 10:07:35;;;;;;;1.10;0.60;;;23.40;27.90;;;;;;5054515;28;20021;-45
2021/12/10 10:10:13;;;;;;;1.42;0.73;;;23.40;28.00;;;;;;5054351;28;20098;-44
2021/12/10 10:12:42;;;;;;;1.90;0.70;;;23.30;28.00;;;;;;5054456;28;20024;-45
2021/12/10 10:15:16;;;;;;;1.75;1.00;;;23.30;28.00;;;;;;5053883;28;20075;-46
2021/12/10 10:17:42;;;;;;;;;;;23.20;28.00;;;;;;5054679;28;20029;-47
2021/12/10 10:20:11;;;;;;;2.08;0.80;;;23.10;28.10;;;;;;5053661;28;19908;-48
2021/12/10 10:22:37;;;;;;;1.98;0.73;;;23.10;28.10;;;;;;5054105;28;20346;-50
2021/12/10 10:25:08;;;;;;;1.65;0.60;;;23.00;28.10;;;;;;5053298;28;20327;-49
2021/12/10 10:27:37;;;;;;;1.33;0.70;;;23.00;28.10;;;;;;5041183;28;20094;-48
2021/12/10 10:30:15;;;;;;;2.67;0.85;;;23.00;28.10;;;;;;5047567;28;20098;-46
2021/12/10 10:32:45;;;;;;;1.13;0.70;;;23.00;28.10;;;;;;5050340;28;20047;-46
2021/12/10 10:35:17;;;;;;;3.13;0.80;;;23.00;28.20;;;;;;5047470;28;20028;-46
2021/12/10 10:37:45;;;;;;;1.02;0.60;;;22.90;28.10;;;;;;5051837;28;20293;-47
2021/12/10 10:40:16;;;;;;;1.42;0.70;;;22.90;28.20;;;;;;5040033;28;20040;-45
2021/12/10 10:42:42;;;;;;;2.08;0.93;;;22.90;28.20;;;;;;5048636;28;20025;-48
2021/12/10 10:45:17;;;;;;;1.50;0.88;;;22.90;28.20;;;;;;5056288;28;20451;-45
2021/12/10 10:47:47;;;;;;;1.77;0.73;;;22.90;28.20;;;;;;5065564;28;20107;-48
2021/12/10 10:50:24;;;;;;;1.42;0.70;;;22.90;28.30;;;;;;5051825;28;20143;-45
2021/12/10 10:52:57;;;;;;;1.40;0.90;;;22.90;28.30;;;;;;5053910;28;20438;-46
2021/12/10 10:55:30;;;;;;;1.45;0.95;;;22.90;28.20;;;;;;5057088;28;20436;-50
2021/12/10 10:58:03;;;;;;;2.38;0.75;;;22.90;28.20;;;;;;5054517;28;20512;-47
2021/12/10 11:00:43;;;;;;;1.65;0.77;;;22.90;28.20;;;;;;5041543;28;20048;-48
2021/12/10 11:03:15;;;;;;;2.00;0.95;;;22.90;28.20;;;;;;5043714;28;20343;-44
2021/12/10 11:05:49;;;;;;;1.92;0.73;;;22.90;28.30;;;;;;5059665;28;20044;-50
2021/12/10 11:08:38;;;;;;;1.73;0.80;;;22.90;28.20;;;;;;5029167;28;20325;-44
2021/12/10 11:11:17;;;;;;;1.73;0.70;;;22.90;28.20;;;;;;5047257;28;20029;-46
2021/12/10 11:13:59;;;;;;;1.90;0.80;;;22.90;28.20;;;;;;5040393;28;20036;-50
2021/12/10 11:16:28;;;;;;;1.67;0.90;;;22.90;28.20;;;;;;5039202;28;20428;-49
2021/12/10 11:19:07;;;;;;;2.13;0.80;;;22.90;28.20;;;;;;5034116;28;20086;-55
2021/12/10 11:21:49;;;;;;;1.40;0.70;;;22.90;28.30;;;;;;5063611;28;20058;-48
2021/12/10 11:24:24;;;;;;;1.38;0.70;;;22.80;28.30;;;;;;5062753;28;20021;-53
2021/12/10 11:26:58;;;;;;;3.42;0.80;;;22.80;28.40;;;;;;5037042;28;20029;-48
2021/12/10 11:29:34;;;;;;;1.65;0.80;;;22.80;29.00;;;;;;5044218;28;20017;-55
2021/12/10 11:32:09;;;;;;;1.80;0.70;;;22.70;28.50;;;;;;5056510;28;20344;-59
2021/12/10 11:34:54;;;;;;;1.40;0.65;;;22.70;28.50;;;;;;5077217;28;20036;-52
2021/12/10 11:37:50;;;;;;;1.05;0.63;;;22.70;28.60;;;;;;5063027;28;20098;-54
2021/12/10 11:40:48;;;;;;;0.68;0.50;;;22.80;28.60;;;;;;5054893;28;20090;-55
2021/12/10 11:43:52;;;;;;;2.05;0.88;;;22.80;28.60;;;;;;5056312;28;20432;-52
2021/12/10 11:49:09;;;;;;;1.58;0.80;;;22.80;28.60;;;;;;5047547;28;20356;-56
2021/12/10 11:51:38;;;;;;;1.30;0.60;;;22.90;28.60;;;;;;5055923;28;20020;-55
2021/12/10 11:54:39;;;;;;;1.30;0.60;;;22.80;28.70;;;;;;5061327;28;20025;-52
2021/12/10 11:57:16;;;;;;;1.48;0.70;;;22.90;28.70;;;;;;5032140;28;20052;-53
2021/12/10 11:59:45;;;;;;;1.88;0.60;;;23.00;29.00;;;;;;5051805;28;20030;-57
2021/12/10 12:02:17;;;;;;;1.20;0.75;;;23.00;29.00;;;;;;5053696;28;20029;-50
2021/12/10 12:04:47;;;;;;;1.77;0.80;;;23.00;29.00;;;;;;5054617;28;20027;-56
2021/12/10 12:07:29;;;;;;;2.13;0.68;;;23.00;29.00;;;;;;5050059;28;20451;-53
2021/12/10 12:10:18;;;;;;;2.35;0.90;;;23.10;29.00;;;;;;5051980;28;20035;-48
2021/12/10 12:15:55;;;;;;;1.98;0.77;;;23.20;29.00;;;;;;5048530;28;20437;-52
2021/12/10 12:18:29;;;;;;;1.13;0.57;;;23.20;29.10;;;;;;5052802;28;20175;-52
2021/12/10 12:21:37;;;;;;;1.13;0.50;;;23.30;29.10;;;;;;5052646;28;20044;-58
2021/12/10 12:26:34;;;;;;;0.93;0.47;;;23.30;29.00;;;;;;5053441;28;20039;-54
2021/12/10 12:29:10;;;;;;;3.92;0.90;;;23.30;29.00;;;;;;5053493;28;20025;-57
2021/12/10 12:31:39;;;;;;;0.95;0.60;;;23.30;29.00;;;;;;5053434;28;20017;-51
2021/12/10 12:34:10;;;;;;;2.13;0.60;;;23.30;29.00;;;;;;5053986;28;20033;-54
2021/12/10 12:36:52;;;;;;;1.85;0.70;;;23.40;29.10;;;;;;5052570;28;20048;-55
2021/12/10 12:39:50;;;;;;;1.58;0.70;;;23.40;29.00;;;;;;5051651;28;20083;-48
2021/12/10 12:42:27;;;;;;;1.25;0.60;;;23.50;29.00;;;;;;5052376;28;20325;-57
2021/12/10 12:44:57;;;;;;;1.00;0.73;;;23.50;29.00;;;;;;5052893;28;20067;-48
2021/12/10 12:47:28;;;;;;;1.35;0.68;;;23.50;29.00;;;;;;5053707;28;20054;-56
2021/12/10 12:50:02;;;;;;;0.80;0.50;;;23.60;29.00;;;;;;5052397;28;20419;-56
2021/12/10 12:52:42;;;;;;;1.05;0.55;;;23.60;28.90;;;;;;5051641;28;20091;-50
2021/12/10 12:55:19;;;;;;;1.45;0.68;;;23.60;28.90;;;;;;5053710;28;20043;-52
2021/12/10 12:58:03;;;;;;;1.08;0.45;;;23.60;28.80;;;;;;5052895;28;20364;-55
2021/12/10 13:00:29;;;;;;;1.77;0.50;;;23.70;28.80;;;;;;5051605;28;20033;-57
2021/12/10 13:02:59;;;;;;;0.57;0.40;;;23.70;28.80;;;;;;5051192;28;20298;-49
2021/12/10 13:06:04;;;;;;;0.88;0.60;;;23.60;28.80;;;;;;5051616;28;20144;-60
2021/12/10 13:08:34;;;;;;;1.65;0.60;;;23.60;28.80;;;;;;4963912;28;20485;-52
2021/12/10 13:11:14;;;;;;;1.73;0.55;;;23.50;28.90;;;;;;5053608;28;20726;-56
2021/12/10 13:13:46;;;;;;;2.40;0.68;;;23.50;29.00;;;;;;5051984;28;20037;-56
2021/12/10 13:16:37;;;;;;;1.27;0.60;;;23.50;29.10;;;;;;5055862;28;20039;-51
2021/12/10 13:19:05;;;;;;;2.08;0.60;;;23.50;29.00;;;;;;5033278;28;20430;-55
2021/12/10 13:21:31;;;;;;;2.28;0.70;;;23.50;29.00;;;;;;5052567;28;20123;-52